sensor_id;sensor_type;location;lat;lon;timestamp;P1;durP1;ratioP1;P2;durP2;ratioP2
5674;SDS011;2860;54.284;10.158;2023-06-14T00:00:10;6.82;;;5.28;;
5674;SDS011;2860;54.284;10.158;2023-06-14T00:02:37;5.97;;;5.57;;
5674;SDS011;2860;54.284;10.158;2023-06-14T00:05:05;5.03;;;4.63;;
5674;SDS011;2860;54.284;10.158;2023-06-14T00:07:35;6.18;;;5.63;;
5674;SDS011;2860;54.284;10.158;2023-06-14T00:10:07;5.57;;;5.10;;
5674;SDS011;2860;54.284;10.158;2023-06-14T00:12:33;6.22;;;5.78;;
5674;SDS011;2860;54.284;10.158;2023-06-14T00:14:59;5.68;;;5.13;;
5674;SDS011;2860;54.284;10.158;2023-06-14T00:17:26;5.25;;;4.85;;
5674;SDS011;2860;54.284;10.158;2023-06-14T00:19:55;6.07;;;4.70;;
5674;SDS011;2860;54.284;10.158;2023-06-14T00:22:21;10.77;;;5.82;;
5674;SDS011;2860;54.284;10.158;2023-06-14T00:24:49;7.18;;;5.78;;
5674;SDS011;2860;54.284;10.158;2023-06-14T00:27:17;6.10;;;5.50;;
5674;SDS011;2860;54.284;10.158;2023-06-14T00:29:43;11.90;;;6.60;;
5674;SDS011;2860;54.284;10.158;2023-06-14T00:32:08;6.18;;;5.53;;
5674;SDS011;2860;54.284;10.158;2023-06-14T00:34:34;7.88;;;6.90;;
5674;SDS011;2860;54.284;10.158;2023-06-14T00:37:00;6.85;;;6.30;;
5674;SDS011;2860;54.284;10.158;2023-06-14T00:39:26;6.63;;;5.85;;
5674;SDS011;2860;54.284;10.158;2023-06-14T00:41:51;7.65;;;6.35;;
5674;SDS011;2860;54.284;10.158;2023-06-14T00:44:17;9.93;;;6.78;;
5674;SDS011;2860;54.284;10.158;2023-06-14T00:46:43;8.45;;;5.88;;
5674;SDS011;2860;54.284;10.158;2023-06-14T00:49:10;9.73;;;7.75;;
5674;SDS011;2860;54.284;10.158;2023-06-14T00:51:37;16.45;;;6.82;;
5674;SDS011;2860;54.284;10.158;2023-06-14T00:54:04;9.75;;;5.97;;
5674;SDS011;2860;54.284;10.158;2023-06-14T00:56:29;12.95;;;6.35;;
5674;SDS011;2860;54.284;10.158;2023-06-14T00:58:55;11.30;;;6.53;;
5674;SDS011;2860;54.284;10.158;2023-06-14T01:01:22;7.50;;;6.82;;
5674;SDS011;2860;54.284;10.158;2023-06-14T01:03:48;8.40;;;6.53;;
5674;SDS011;2860;54.284;10.158;2023-06-14T01:06:20;7.47;;;6.60;;
5674;SDS011;2860;54.284;10.158;2023-06-14T01:09:10;7.47;;;6.78;;
5674;SDS011;2860;54.284;10.158;2023-06-14T01:12:02;11.10;;;7.13;;
5674;SDS011;2860;54.284;10.158;2023-06-14T01:14:32;9.32;;;7.25;;
5674;SDS011;2860;54.284;10.158;2023-06-14T01:16:59;7.20;;;6.55;;
5674;SDS011;2860;54.284;10.158;2023-06-14T01:19:25;8.20;;;7.00;;
5674;SDS011;2860;54.284;10.158;2023-06-14T01:21:53;9.50;;;7.75;;
5674;SDS011;2860;54.284;10.158;2023-06-14T01:24:20;9.60;;;7.20;;
5674;SDS011;2860;54.284;10.158;2023-06-14T01:26:51;6.57;;;6.20;;
5674;SDS011;2860;54.284;10.158;2023-06-14T01:29:21;7.10;;;6.45;;
5674;SDS011;2860;54.284;10.158;2023-06-14T01:31:47;9.57;;;6.65;;
5674;SDS011;2860;54.284;10.158;2023-06-14T01:34:13;6.88;;;6.22;;
5674;SDS011;2860;54.284;10.158;2023-06-14T01:36:40;9.50;;;7.05;;
5674;SDS011;2860;54.284;10.158;2023-06-14T01:39:06;6.97;;;6.43;;
5674;SDS011;2860;54.284;10.158;2023-06-14T01:41:33;9.98;;;6.90;;
5674;SDS011;2860;54.284;10.158;2023-06-14T01:44:00;10.57;;;7.18;;
5674;SDS011;2860;54.284;10.158;2023-06-14T01:46:26;7.05;;;5.72;;
5674;SDS011;2860;54.284;10.158;2023-06-14T01:48:52;9.57;;;7.20;;
5674;SDS011;2860;54.284;10.158;2023-06-14T01:51:18;9.57;;;7.43;;
5674;SDS011;2860;54.284;10.158;2023-06-14T01:53:43;10.02;;;7.63;;
5674;SDS011;2860;54.284;10.158;2023-06-14T01:56:09;8.20;;;7.35;;
5674;SDS011;2860;54.284;10.158;2023-06-14T01:58:34;7.93;;;7.05;;
5674;SDS011;2860;54.284;10.158;2023-06-14T02:01:00;11.73;;;6.95;;
5674;SDS011;2860;54.284;10.158;2023-06-14T02:03:27;9.85;;;6.88;;
5674;SDS011;2860;54.284;10.158;2023-06-14T02:05:52;8.02;;;7.13;;
5674;SDS011;2860;54.284;10.158;2023-06-14T02:08:19;12.90;;;7.32;;
5674;SDS011;2860;54.284;10.158;2023-06-14T02:10:44;7.38;;;6.60;;
5674;SDS011;2860;54.284;10.158;2023-06-14T02:13:10;9.73;;;7.00;;
5674;SDS011;2860;54.284;10.158;2023-06-14T02:15:36;7.30;;;6.55;;
5674;SDS011;2860;54.284;10.158;2023-06-14T02:18:02;7.88;;;7.25;;
5674;SDS011;2860;54.284;10.158;2023-06-14T02:20:29;11.15;;;7.22;;
5674;SDS011;2860;54.284;10.158;2023-06-14T02:22:55;9.25;;;6.93;;
5674;SDS011;2860;54.284;10.158;2023-06-14T02:25:20;9.43;;;6.03;;
5674;SDS011;2860;54.284;10.158;2023-06-14T02:27:46;7.78;;;7.07;;
5674;SDS011;2860;54.284;10.158;2023-06-14T02:30:11;7.15;;;6.47;;
5674;SDS011;2860;54.284;10.158;2023-06-14T02:32:37;7.57;;;6.80;;
5674;SDS011;2860;54.284;10.158;2023-06-14T02:35:03;7.43;;;6.78;;
5674;SDS011;2860;54.284;10.158;2023-06-14T02:37:29;9.40;;;6.20;;
5674;SDS011;2860;54.284;10.158;2023-06-14T02:39:55;7.28;;;6.55;;
5674;SDS011;2860;54.284;10.158;2023-06-14T02:42:21;7.30;;;6.75;;
5674;SDS011;2860;54.284;10.158;2023-06-14T02:44:46;11.55;;;7.03;;
5674;SDS011;2860;54.284;10.158;2023-06-14T02:47:16;8.10;;;6.10;;
5674;SDS011;2860;54.284;10.158;2023-06-14T02:49:44;8.23;;;6.13;;
5674;SDS011;2860;54.284;10.158;2023-06-14T02:52:13;6.85;;;6.43;;
5674;SDS011;2860;54.284;10.158;2023-06-14T02:54:39;9.32;;;6.07;;
5674;SDS011;2860;54.284;10.158;2023-06-14T02:57:05;11.50;;;6.88;;
5674;SDS011;2860;54.284;10.158;2023-06-14T02:59:32;11.23;;;6.70;;
5674;SDS011;2860;54.284;10.158;2023-06-14T03:01:58;8.05;;;6.30;;
5674;SDS011;2860;54.284;10.158;2023-06-14T03:04:23;13.20;;;6.60;;
5674;SDS011;2860;54.284;10.158;2023-06-14T03:06:50;7.45;;;6.82;;
5674;SDS011;2860;54.284;10.158;2023-06-14T03:09:16;6.50;;;5.85;;
5674;SDS011;2860;54.284;10.158;2023-06-14T03:11:42;8.18;;;6.55;;
5674;SDS011;2860;54.284;10.158;2023-06-14T03:14:07;7.15;;;6.47;;
5674;SDS011;2860;54.284;10.158;2023-06-14T03:16:33;8.38;;;6.07;;
5674;SDS011;2860;54.284;10.158;2023-06-14T03:19:00;7.72;;;5.97;;
5674;SDS011;2860;54.284;10.158;2023-06-14T03:21:25;10.00;;;5.60;;
5674;SDS011;2860;54.284;10.158;2023-06-14T03:23:51;6.93;;;6.43;;
5674;SDS011;2860;54.284;10.158;2023-06-14T03:26:17;7.13;;;6.43;;
5674;SDS011;2860;54.284;10.158;2023-06-14T03:28:46;6.65;;;6.03;;
5674;SDS011;2860;54.284;10.158;2023-06-14T03:31:13;11.90;;;7.47;;
5674;SDS011;2860;54.284;10.158;2023-06-14T03:33:39;8.32;;;6.47;;
5674;SDS011;2860;54.284;10.158;2023-06-14T03:36:05;10.35;;;6.28;;
5674;SDS011;2860;54.284;10.158;2023-06-14T03:38:31;8.05;;;7.25;;
5674;SDS011;2860;54.284;10.158;2023-06-14T03:40:57;8.40;;;6.72;;
5674;SDS011;2860;54.284;10.158;2023-06-14T03:43:22;9.77;;;6.32;;
5674;SDS011;2860;54.284;10.158;2023-06-14T03:45:48;8.40;;;6.68;;
5674;SDS011;2860;54.284;10.158;2023-06-14T03:48:13;8.60;;;6.00;;
5674;SDS011;2860;54.284;10.158;2023-06-14T03:50:39;13.82;;;7.47;;
5674;SDS011;2860;54.284;10.158;2023-06-14T03:53:05;12.68;;;7.13;;
5674;SDS011;2860;54.284;10.158;2023-06-14T03:55:31;7.85;;;6.78;;
5674;SDS011;2860;54.284;10.158;2023-06-14T03:57:58;6.90;;;6.32;;
5674;SDS011;2860;54.284;10.158;2023-06-14T04:00:23;14.45;;;7.18;;
5674;SDS011;2860;54.284;10.158;2023-06-14T04:02:49;8.00;;;7.28;;
5674;SDS011;2860;54.284;10.158;2023-06-14T04:05:15;7.32;;;6.35;;
5674;SDS011;2860;54.284;10.158;2023-06-14T04:07:44;7.60;;;6.85;;
5674;SDS011;2860;54.284;10.158;2023-06-14T04:10:10;9.40;;;7.10;;
5674;SDS011;2860;54.284;10.158;2023-06-14T04:12:36;13.88;;;7.18;;
5674;SDS011;2860;54.284;10.158;2023-06-14T04:15:02;8.55;;;6.15;;
5674;SDS011;2860;54.284;10.158;2023-06-14T04:17:30;13.20;;;7.75;;
5674;SDS011;2860;54.284;10.158;2023-06-14T04:19:57;9.25;;;7.38;;
5674;SDS011;2860;54.284;10.158;2023-06-14T04:22:28;8.52;;;7.82;;
5674;SDS011;2860;54.284;10.158;2023-06-14T04:24:55;7.82;;;6.90;;
5674;SDS011;2860;54.284;10.158;2023-06-14T04:27:24;8.98;;;6.25;;
5674;SDS011;2860;54.284;10.158;2023-06-14T04:29:51;8.60;;;6.50;;
5674;SDS011;2860;54.284;10.158;2023-06-14T04:32:22;13.15;;;7.95;;
5674;SDS011;2860;54.284;10.158;2023-06-14T04:34:54;6.50;;;6.03;;
5674;SDS011;2860;54.284;10.158;2023-06-14T04:37:24;7.47;;;5.65;;
5674;SDS011;2860;54.284;10.158;2023-06-14T04:39:51;10.80;;;6.97;;
5674;SDS011;2860;54.284;10.158;2023-06-14T04:42:17;10.63;;;6.40;;
5674;SDS011;2860;54.284;10.158;2023-06-14T04:44:45;9.85;;;6.35;;
5674;SDS011;2860;54.284;10.158;2023-06-14T04:47:12;6.70;;;6.28;;
5674;SDS011;2860;54.284;10.158;2023-06-14T04:49:39;7.10;;;6.40;;
5674;SDS011;2860;54.284;10.158;2023-06-14T04:52:05;7.00;;;6.30;;
5674;SDS011;2860;54.284;10.158;2023-06-14T04:54:32;6.80;;;6.10;;
5674;SDS011;2860;54.284;10.158;2023-06-14T04:56:59;7.15;;;5.78;;
5674;SDS011;2860;54.284;10.158;2023-06-14T04:59:24;4.82;;;4.63;;
5674;SDS011;2860;54.284;10.158;2023-06-14T05:01:50;5.25;;;4.80;;
5674;SDS011;2860;54.284;10.158;2023-06-14T05:04:16;8.50;;;5.40;;
5674;SDS011;2860;54.284;10.158;2023-06-14T05:06:46;4.97;;;4.15;;
5674;SDS011;2860;54.284;10.158;2023-06-14T05:09:14;6.20;;;3.95;;
5674;SDS011;2860;54.284;10.158;2023-06-14T05:11:41;5.93;;;4.03;;
5674;SDS011;2860;54.284;10.158;2023-06-14T05:14:09;3.67;;;3.40;;
5674;SDS011;2860;54.284;10.158;2023-06-14T05:16:35;8.18;;;3.90;;
5674;SDS011;2860;54.284;10.158;2023-06-14T05:19:01;4.20;;;3.30;;
5674;SDS011;2860;54.284;10.158;2023-06-14T05:21:29;3.88;;;3.10;;
5674;SDS011;2860;54.284;10.158;2023-06-14T05:23:55;5.22;;;2.58;;
5674;SDS011;2860;54.284;10.158;2023-06-14T05:26:20;5.70;;;2.70;;
5674;SDS011;2860;54.284;10.158;2023-06-14T05:28:48;3.60;;;3.30;;
5674;SDS011;2860;54.284;10.158;2023-06-14T05:31:14;2.97;;;2.78;;
5674;SDS011;2860;54.284;10.158;2023-06-14T05:33:40;4.10;;;2.95;;
5674;SDS011;2860;54.284;10.158;2023-06-14T05:36:05;3.45;;;2.42;;
5674;SDS011;2860;54.284;10.158;2023-06-14T05:38:31;6.35;;;3.05;;
5674;SDS011;2860;54.284;10.158;2023-06-14T05:40:57;4.35;;;2.47;;
5674;SDS011;2860;54.284;10.158;2023-06-14T05:43:22;5.97;;;2.70;;
5674;SDS011;2860;54.284;10.158;2023-06-14T05:45:48;2.88;;;2.63;;
5674;SDS011;2860;54.284;10.158;2023-06-14T05:48:13;3.90;;;3.60;;
5674;SDS011;2860;54.284;10.158;2023-06-14T05:50:39;4.68;;;4.22;;
5674;SDS011;2860;54.284;10.158;2023-06-14T05:53:04;7.80;;;2.95;;
5674;SDS011;2860;54.284;10.158;2023-06-14T05:55:30;2.97;;;2.78;;
5674;SDS011;2860;54.284;10.158;2023-06-14T05:57:55;4.50;;;2.13;;
5674;SDS011;2860;54.284;10.158;2023-06-14T06:00:21;2.47;;;2.28;;
5674;SDS011;2860;54.284;10.158;2023-06-14T06:02:47;3.25;;;3.00;;
5674;SDS011;2860;54.284;10.158;2023-06-14T06:05:12;2.90;;;2.70;;
5674;SDS011;2860;54.284;10.158;2023-06-14T06:07:38;6.78;;;2.90;;
5674;SDS011;2860;54.284;10.158;2023-06-14T06:10:10;2.50;;;2.47;;
5674;SDS011;2860;54.284;10.158;2023-06-14T06:12:36;3.97;;;3.67;;
5674;SDS011;2860;54.284;10.158;2023-06-14T06:15:02;4.15;;;3.70;;
5674;SDS011;2860;54.284;10.158;2023-06-14T06:17:28;2.60;;;2.40;;
5674;SDS011;2860;54.284;10.158;2023-06-14T06:19:54;2.63;;;2.42;;
5674;SDS011;2860;54.284;10.158;2023-06-14T06:22:19;2.35;;;2.20;;
5674;SDS011;2860;54.284;10.158;2023-06-14T06:24:45;2.17;;;1.98;;
5674;SDS011;2860;54.284;10.158;2023-06-14T06:27:11;4.43;;;2.58;;
5674;SDS011;2860;54.284;10.158;2023-06-14T06:29:37;3.47;;;2.92;;
5674;SDS011;2860;54.284;10.158;2023-06-14T06:32:03;2.45;;;2.35;;
5674;SDS011;2860;54.284;10.158;2023-06-14T06:34:29;2.58;;;2.30;;
5674;SDS011;2860;54.284;10.158;2023-06-14T06:36:55;5.07;;;2.60;;
5674;SDS011;2860;54.284;10.158;2023-06-14T06:39:20;3.20;;;2.38;;
5674;SDS011;2860;54.284;10.158;2023-06-14T06:41:46;2.92;;;2.55;;
5674;SDS011;2860;54.284;10.158;2023-06-14T06:44:11;2.33;;;2.22;;
5674;SDS011;2860;54.284;10.158;2023-06-14T06:46:37;2.13;;;1.98;;
5674;SDS011;2860;54.284;10.158;2023-06-14T06:49:06;3.53;;;2.58;;
5674;SDS011;2860;54.284;10.158;2023-06-14T06:51:31;5.97;;;2.85;;
5674;SDS011;2860;54.284;10.158;2023-06-14T06:53:57;2.58;;;2.38;;
5674;SDS011;2860;54.284;10.158;2023-06-14T06:56:23;7.05;;;2.78;;
5674;SDS011;2860;54.284;10.158;2023-06-14T06:58:49;2.58;;;2.08;;
5674;SDS011;2860;54.284;10.158;2023-06-14T07:01:16;2.63;;;2.22;;
5674;SDS011;2860;54.284;10.158;2023-06-14T07:03:42;5.40;;;2.80;;
5674;SDS011;2860;54.284;10.158;2023-06-14T07:06:08;2.78;;;2.58;;
5674;SDS011;2860;54.284;10.158;2023-06-14T07:08:33;6.22;;;2.15;;
5674;SDS011;2860;54.284;10.158;2023-06-14T07:10:59;7.05;;;2.78;;
5674;SDS011;2860;54.284;10.158;2023-06-14T07:13:25;4.85;;;2.97;;
5674;SDS011;2860;54.284;10.158;2023-06-14T07:15:50;4.13;;;2.60;;
5674;SDS011;2860;54.284;10.158;2023-06-14T07:18:19;3.20;;;2.88;;
5674;SDS011;2860;54.284;10.158;2023-06-14T07:20:45;2.90;;;2.70;;
5674;SDS011;2860;54.284;10.158;2023-06-14T07:23:10;2.72;;;2.50;;
5674;SDS011;2860;54.284;10.158;2023-06-14T07:25:36;4.20;;;3.38;;
5674;SDS011;2860;54.284;10.158;2023-06-14T07:28:01;2.97;;;2.75;;
5674;SDS011;2860;54.284;10.158;2023-06-14T07:30:27;3.75;;;2.40;;
5674;SDS011;2860;54.284;10.158;2023-06-14T07:32:54;3.38;;;2.53;;
5674;SDS011;2860;54.284;10.158;2023-06-14T07:35:20;4.22;;;2.78;;
5674;SDS011;2860;54.284;10.158;2023-06-14T07:37:46;4.78;;;2.65;;
5674;SDS011;2860;54.284;10.158;2023-06-14T07:40:12;2.55;;;2.38;;
5674;SDS011;2860;54.284;10.158;2023-06-14T07:42:38;5.47;;;2.60;;
5674;SDS011;2860;54.284;10.158;2023-06-14T07:45:04;5.45;;;2.25;;
5674;SDS011;2860;54.284;10.158;2023-06-14T07:47:30;3.92;;;2.25;;
5674;SDS011;2860;54.284;10.158;2023-06-14T07:49:56;2.55;;;2.17;;
5674;SDS011;2860;54.284;10.158;2023-06-14T07:52:22;3.78;;;2.78;;
5674;SDS011;2860;54.284;10.158;2023-06-14T07:54:47;2.30;;;2.20;;
5674;SDS011;2860;54.284;10.158;2023-06-14T07:57:13;2.33;;;2.22;;
5674;SDS011;2860;54.284;10.158;2023-06-14T07:59:38;2.83;;;2.55;;
5674;SDS011;2860;54.284;10.158;2023-06-14T08:02:04;2.40;;;2.30;;
5674;SDS011;2860;54.284;10.158;2023-06-14T08:04:29;3.75;;;2.40;;
5674;SDS011;2860;54.284;10.158;2023-06-14T08:06:56;4.07;;;2.55;;
5674;SDS011;2860;54.284;10.158;2023-06-14T08:09:22;2.47;;;2.28;;
5674;SDS011;2860;54.284;10.158;2023-06-14T08:11:48;4.22;;;2.67;;
5674;SDS011;2860;54.284;10.158;2023-06-14T08:14:13;2.58;;;2.47;;
5674;SDS011;2860;54.284;10.158;2023-06-14T08:16:39;5.90;;;2.92;;
5674;SDS011;2860;54.284;10.158;2023-06-14T08:19:04;2.25;;;2.15;;
5674;SDS011;2860;54.284;10.158;2023-06-14T08:21:30;3.22;;;2.33;;
5674;SDS011;2860;54.284;10.158;2023-06-14T08:23:58;2.15;;;2.05;;
5674;SDS011;2860;54.284;10.158;2023-06-14T08:26:24;3.38;;;2.10;;
5674;SDS011;2860;54.284;10.158;2023-06-14T08:28:53;5.60;;;2.25;;
5674;SDS011;2860;54.284;10.158;2023-06-14T08:31:20;2.88;;;2.40;;
5674;SDS011;2860;54.284;10.158;2023-06-14T08:33:45;2.63;;;2.42;;
5674;SDS011;2860;54.284;10.158;2023-06-14T08:36:11;1.73;;;1.70;;
5674;SDS011;2860;54.284;10.158;2023-06-14T08:38:37;2.47;;;2.28;;
5674;SDS011;2860;54.284;10.158;2023-06-14T08:41:04;5.30;;;2.10;;
5674;SDS011;2860;54.284;10.158;2023-06-14T08:43:31;8.30;;;3.30;;
5674;SDS011;2860;54.284;10.158;2023-06-14T08:45:58;4.22;;;2.00;;
5674;SDS011;2860;54.284;10.158;2023-06-14T08:48:26;5.38;;;2.10;;
5674;SDS011;2860;54.284;10.158;2023-06-14T08:50:51;2.38;;;2.28;;
5674;SDS011;2860;54.284;10.158;2023-06-14T08:53:26;3.80;;;2.30;;
5674;SDS011;2860;54.284;10.158;2023-06-14T08:55:53;3.90;;;2.47;;
5674;SDS011;2860;54.284;10.158;2023-06-14T08:58:20;2.47;;;2.38;;
5674;SDS011;2860;54.284;10.158;2023-06-14T09:00:49;4.60;;;2.40;;
5674;SDS011;2860;54.284;10.158;2023-06-14T09:03:17;2.70;;;2.50;;
5674;SDS011;2860;54.284;10.158;2023-06-14T09:05:45;3.55;;;1.98;;
5674;SDS011;2860;54.284;10.158;2023-06-14T09:08:11;2.28;;;2.17;;
5674;SDS011;2860;54.284;10.158;2023-06-14T09:10:37;7.47;;;2.50;;
5674;SDS011;2860;54.284;10.158;2023-06-14T09:13:05;4.55;;;2.65;;
5674;SDS011;2860;54.284;10.158;2023-06-14T09:15:30;2.92;;;2.45;;
5674;SDS011;2860;54.284;10.158;2023-06-14T09:17:57;1.90;;;1.75;;
5674;SDS011;2860;54.284;10.158;2023-06-14T09:20:23;7.03;;;2.92;;
5674;SDS011;2860;54.284;10.158;2023-06-14T09:22:49;3.92;;;2.35;;
5674;SDS011;2860;54.284;10.158;2023-06-14T09:25:15;5.35;;;2.63;;
5674;SDS011;2860;54.284;10.158;2023-06-14T09:27:41;4.88;;;2.05;;
5674;SDS011;2860;54.284;10.158;2023-06-14T09:30:08;2.78;;;2.58;;
5674;SDS011;2860;54.284;10.158;2023-06-14T09:32:38;5.95;;;2.53;;
5674;SDS011;2860;54.284;10.158;2023-06-14T09:35:05;3.03;;;1.70;;
5674;SDS011;2860;54.284;10.158;2023-06-14T09:37:32;3.33;;;2.33;;
5674;SDS011;2860;54.284;10.158;2023-06-14T09:39:58;2.17;;;1.98;;
5674;SDS011;2860;54.284;10.158;2023-06-14T09:42:24;2.60;;;2.50;;
5674;SDS011;2860;54.284;10.158;2023-06-14T09:44:54;2.40;;;2.20;;
5674;SDS011;2860;54.284;10.158;2023-06-14T09:47:20;3.22;;;2.35;;
5674;SDS011;2860;54.284;10.158;2023-06-14T09:49:47;1.77;;;1.67;;
5674;SDS011;2860;54.284;10.158;2023-06-14T09:52:14;5.72;;;2.05;;
5674;SDS011;2860;54.284;10.158;2023-06-14T09:54:42;3.80;;;2.33;;
5674;SDS011;2860;54.284;10.158;2023-06-14T09:57:11;2.10;;;1.88;;
5674;SDS011;2860;54.284;10.158;2023-06-14T09:59:42;2.53;;;2.42;;
5674;SDS011;2860;54.284;10.158;2023-06-14T10:02:13;1.48;;;1.38;;
5674;SDS011;2860;54.284;10.158;2023-06-14T10:04:53;2.88;;;1.90;;
5674;SDS011;2860;54.284;10.158;2023-06-14T10:07:25;1.98;;;1.98;;
5674;SDS011;2860;54.284;10.158;2023-06-14T10:09:55;3.00;;;2.10;;
5674;SDS011;2860;54.284;10.158;2023-06-14T10:12:20;1.92;;;1.83;;
5674;SDS011;2860;54.284;10.158;2023-06-14T10:14:49;3.88;;;1.77;;
5674;SDS011;2860;54.284;10.158;2023-06-14T10:17:20;2.40;;;1.83;;
5674;SDS011;2860;54.284;10.158;2023-06-14T10:19:54;2.35;;;2.25;;
5674;SDS011;2860;54.284;10.158;2023-06-14T10:22:43;4.28;;;2.45;;
5674;SDS011;2860;54.284;10.158;2023-06-14T10:25:26;2.83;;;2.60;;
5674;SDS011;2860;54.284;10.158;2023-06-14T10:28:01;2.47;;;2.33;;
5674;SDS011;2860;54.284;10.158;2023-06-14T10:30:28;2.72;;;2.30;;
5674;SDS011;2860;54.284;10.158;2023-06-14T10:33:06;5.40;;;2.25;;
5674;SDS011;2860;54.284;10.158;2023-06-14T10:35:33;7.63;;;3.47;;
5674;SDS011;2860;54.284;10.158;2023-06-14T10:38:11;1.85;;;1.75;;
5674;SDS011;2860;54.284;10.158;2023-06-14T10:40:37;3.50;;;2.08;;
5674;SDS011;2860;54.284;10.158;2023-06-14T10:43:20;1.98;;;1.70;;
5674;SDS011;2860;54.284;10.158;2023-06-14T10:48:44;2.33;;;2.22;;
5674;SDS011;2860;54.284;10.158;2023-06-14T10:51:29;2.20;;;1.95;;
5674;SDS011;2860;54.284;10.158;2023-06-14T10:54:11;3.42;;;2.03;;
5674;SDS011;2860;54.284;10.158;2023-06-14T10:56:38;6.18;;;2.17;;
5674;SDS011;2860;54.284;10.158;2023-06-14T10:59:12;16.50;;;2.47;;
5674;SDS011;2860;54.284;10.158;2023-06-14T11:01:40;3.67;;;2.45;;
5674;SDS011;2860;54.284;10.158;2023-06-14T11:04:14;1.92;;;1.92;;
5674;SDS011;2860;54.284;10.158;2023-06-14T11:06:48;3.28;;;1.95;;
5674;SDS011;2860;54.284;10.158;2023-06-14T11:12:12;2.50;;;2.05;;
5674;SDS011;2860;54.284;10.158;2023-06-14T11:14:40;4.53;;;2.30;;
5674;SDS011;2860;54.284;10.158;2023-06-14T11:17:05;2.28;;;2.17;;
5674;SDS011;2860;54.284;10.158;2023-06-14T11:19:31;4.68;;;2.20;;
5674;SDS011;2860;54.284;10.158;2023-06-14T11:21:56;2.40;;;2.00;;
5674;SDS011;2860;54.284;10.158;2023-06-14T11:24:22;2.50;;;2.40;;
5674;SDS011;2860;54.284;10.158;2023-06-14T11:26:48;2.75;;;2.20;;
5674;SDS011;2860;54.284;10.158;2023-06-14T11:29:15;2.65;;;2.30;;
5674;SDS011;2860;54.284;10.158;2023-06-14T11:31:44;2.28;;;1.70;;
5674;SDS011;2860;54.284;10.158;2023-06-14T11:34:12;2.75;;;2.55;;
5674;SDS011;2860;54.284;10.158;2023-06-14T11:36:39;6.30;;;2.08;;
5674;SDS011;2860;54.284;10.158;2023-06-14T11:39:05;2.08;;;1.98;;
5674;SDS011;2860;54.284;10.158;2023-06-14T11:41:43;4.18;;;1.90;;
5674;SDS011;2860;54.284;10.158;2023-06-14T11:44:10;5.82;;;2.15;;
5674;SDS011;2860;54.284;10.158;2023-06-14T11:46:36;2.17;;;2.03;;
5674;SDS011;2860;54.284;10.158;2023-06-14T11:49:06;2.33;;;2.20;;
5674;SDS011;2860;54.284;10.158;2023-06-14T11:51:32;2.47;;;2.38;;
5674;SDS011;2860;54.284;10.158;2023-06-14T11:53:59;2.78;;;2.13;;
5674;SDS011;2860;54.284;10.158;2023-06-14T11:56:25;2.50;;;2.35;;
5674;SDS011;2860;54.284;10.158;2023-06-14T11:58:52;2.35;;;2.15;;
5674;SDS011;2860;54.284;10.158;2023-06-14T12:01:19;2.38;;;1.80;;
5674;SDS011;2860;54.284;10.158;2023-06-14T12:03:51;3.50;;;2.40;;
5674;SDS011;2860;54.284;10.158;2023-06-14T12:06:25;2.58;;;2.25;;
5674;SDS011;2860;54.284;10.158;2023-06-14T12:08:55;2.58;;;2.42;;
5674;SDS011;2860;54.284;10.158;2023-06-14T12:11:21;3.55;;;2.30;;
5674;SDS011;2860;54.284;10.158;2023-06-14T12:13:46;2.42;;;2.08;;
5674;SDS011;2860;54.284;10.158;2023-06-14T12:16:14;5.43;;;2.72;;
5674;SDS011;2860;54.284;10.158;2023-06-14T12:18:40;2.45;;;2.20;;
5674;SDS011;2860;54.284;10.158;2023-06-14T12:21:09;2.38;;;2.15;;
5674;SDS011;2860;54.284;10.158;2023-06-14T12:23:42;2.60;;;2.50;;
5674;SDS011;2860;54.284;10.158;2023-06-14T12:26:11;12.85;;;2.17;;
5674;SDS011;2860;54.284;10.158;2023-06-14T12:28:39;2.70;;;2.53;;
5674;SDS011;2860;54.284;10.158;2023-06-14T12:31:06;2.03;;;1.92;;
5674;SDS011;2860;54.284;10.158;2023-06-14T12:33:32;7.32;;;2.33;;
5674;SDS011;2860;54.284;10.158;2023-06-14T12:35:57;4.05;;;2.08;;
5674;SDS011;2860;54.284;10.158;2023-06-14T12:38:23;2.70;;;2.50;;
5674;SDS011;2860;54.284;10.158;2023-06-14T12:40:49;7.10;;;2.15;;
5674;SDS011;2860;54.284;10.158;2023-06-14T12:43:15;2.55;;;1.90;;
5674;SDS011;2860;54.284;10.158;2023-06-14T12:45:43;4.38;;;2.40;;
5674;SDS011;2860;54.284;10.158;2023-06-14T12:48:09;3.38;;;2.60;;
5674;SDS011;2860;54.284;10.158;2023-06-14T12:50:34;2.58;;;1.92;;
5674;SDS011;2860;54.284;10.158;2023-06-14T12:53:00;7.20;;;2.38;;
5674;SDS011;2860;54.284;10.158;2023-06-14T12:55:25;2.35;;;2.08;;
5674;SDS011;2860;54.284;10.158;2023-06-14T12:57:51;4.47;;;2.80;;
5674;SDS011;2860;54.284;10.158;2023-06-14T13:00:16;4.20;;;2.70;;
5674;SDS011;2860;54.284;10.158;2023-06-14T13:02:43;2.72;;;2.70;;
5674;SDS011;2860;54.284;10.158;2023-06-14T13:05:08;1.92;;;1.92;;
5674;SDS011;2860;54.284;10.158;2023-06-14T13:07:34;5.00;;;2.58;;
5674;SDS011;2860;54.284;10.158;2023-06-14T13:10:00;2.97;;;2.55;;
5674;SDS011;2860;54.284;10.158;2023-06-14T13:12:26;11.15;;;2.53;;
5674;SDS011;2860;54.284;10.158;2023-06-14T13:14:51;2.72;;;2.40;;
5674;SDS011;2860;54.284;10.158;2023-06-14T13:17:17;6.53;;;2.63;;
5674;SDS011;2860;54.284;10.158;2023-06-14T13:19:42;5.18;;;3.30;;
5674;SDS011;2860;54.284;10.158;2023-06-14T13:22:08;4.32;;;2.30;;
5674;SDS011;2860;54.284;10.158;2023-06-14T13:24:34;6.43;;;2.22;;
5674;SDS011;2860;54.284;10.158;2023-06-14T13:26:59;5.57;;;2.75;;
5674;SDS011;2860;54.284;10.158;2023-06-14T13:29:25;2.67;;;2.58;;
5674;SDS011;2860;54.284;10.158;2023-06-14T13:31:52;9.02;;;2.70;;
5674;SDS011;2860;54.284;10.158;2023-06-14T13:34:18;7.85;;;3.00;;
5674;SDS011;2860;54.284;10.158;2023-06-14T13:36:43;3.65;;;2.85;;
5674;SDS011;2860;54.284;10.158;2023-06-14T13:39:09;7.80;;;3.20;;
5674;SDS011;2860;54.284;10.158;2023-06-14T13:41:36;3.22;;;2.85;;
5674;SDS011;2860;54.284;10.158;2023-06-14T13:44:02;2.70;;;2.50;;
5674;SDS011;2860;54.284;10.158;2023-06-14T13:46:30;5.05;;;3.42;;
5674;SDS011;2860;54.284;10.158;2023-06-14T13:48:56;3.33;;;2.95;;
5674;SDS011;2860;54.284;10.158;2023-06-14T13:51:23;3.10;;;2.90;;
5674;SDS011;2860;54.284;10.158;2023-06-14T13:53:49;2.80;;;2.60;;
5674;SDS011;2860;54.284;10.158;2023-06-14T13:56:15;4.47;;;3.80;;
5674;SDS011;2860;54.284;10.158;2023-06-14T13:58:41;2.83;;;2.58;;
5674;SDS011;2860;54.284;10.158;2023-06-14T14:01:07;4.35;;;2.22;;
5674;SDS011;2860;54.284;10.158;2023-06-14T14:03:33;4.72;;;2.20;;
5674;SDS011;2860;54.284;10.158;2023-06-14T14:06:00;7.63;;;2.95;;
5674;SDS011;2860;54.284;10.158;2023-06-14T14:08:26;6.38;;;2.85;;
5674;SDS011;2860;54.284;10.158;2023-06-14T14:10:52;3.08;;;2.80;;
5674;SDS011;2860;54.284;10.158;2023-06-14T14:13:18;6.20;;;2.63;;
5674;SDS011;2860;54.284;10.158;2023-06-14T14:15:43;2.50;;;2.47;;
5674;SDS011;2860;54.284;10.158;2023-06-14T14:18:09;4.82;;;2.38;;
5674;SDS011;2860;54.284;10.158;2023-06-14T14:20:35;3.15;;;2.45;;
5674;SDS011;2860;54.284;10.158;2023-06-14T14:23:00;8.40;;;2.63;;
5674;SDS011;2860;54.284;10.158;2023-06-14T14:25:26;4.50;;;2.47;;
5674;SDS011;2860;54.284;10.158;2023-06-14T14:27:52;5.35;;;2.53;;
5674;SDS011;2860;54.284;10.158;2023-06-14T14:30:18;4.97;;;2.60;;
5674;SDS011;2860;54.284;10.158;2023-06-14T14:32:48;2.60;;;2.50;;
5674;SDS011;2860;54.284;10.158;2023-06-14T14:35:15;3.92;;;2.28;;
5674;SDS011;2860;54.284;10.158;2023-06-14T14:37:42;2.50;;;2.38;;
5674;SDS011;2860;54.284;10.158;2023-06-14T14:40:08;3.13;;;2.92;;
5674;SDS011;2860;54.284;10.158;2023-06-14T14:42:35;4.53;;;3.10;;
5674;SDS011;2860;54.284;10.158;2023-06-14T14:45:00;2.67;;;2.58;;
5674;SDS011;2860;54.284;10.158;2023-06-14T14:47:26;3.08;;;2.88;;
5674;SDS011;2860;54.284;10.158;2023-06-14T14:49:51;2.60;;;2.47;;
5674;SDS011;2860;54.284;10.158;2023-06-14T14:52:17;2.70;;;2.50;;
5674;SDS011;2860;54.284;10.158;2023-06-14T14:54:43;2.58;;;2.55;;
5674;SDS011;2860;54.284;10.158;2023-06-14T14:57:08;6.45;;;2.63;;
5674;SDS011;2860;54.284;10.158;2023-06-14T14:59:35;4.88;;;2.55;;
5674;SDS011;2860;54.284;10.158;2023-06-14T15:02:01;2.80;;;2.60;;
5674;SDS011;2860;54.284;10.158;2023-06-14T15:04:26;2.70;;;2.60;;